| time (UTC) | temp F | wind direction | speed MPH | gust MPH | rain 1hr in | rain 24hr in | rain mn in | humidity % | barometer mb |
| 20260503200736 | 90 | 323 | 0.0 | 11.0 | 0.00 | 0.00 | 0.00 | 19 | 979.7 |
| 20260503200236 | 90 | 313 | 5.0 | 11.0 | 0.00 | 0.00 | 0.00 | 19 | 979.9 |
| 20260503195736 | 90 | 323 | 2.0 | 6.0 | 0.00 | 0.00 | 0.00 | 19 | 979.9 |
| 20260503195234 | 90 | 312 | 0.0 | 5.0 | 0.00 | 0.00 | 0.00 | 19 | 979.9 |
| 20260503194735 | 89 | 312 | 1.0 | 5.0 | 0.00 | 0.00 | 0.00 | 20 | 979.8 |
| 20260503194235 | 89 | 38 | 0.0 | 10.0 | 0.00 | 0.00 | 0.00 | 21 | 979.8 |
| 20260503193235 | 89 | 321 | 0.0 | 3.0 | 0.00 | 0.00 | 0.00 | 21 | 979.8 |
| 20260503192732 | 0 | 0.0 | 0.0 | 0.00 | 0.00 | 0.00 | 979.9 | ||
| 20260503192233 | 0 | 300 | 1.0 | 2.0 | 0.00 | 0.00 | 0.00 | 980.1 | |
| 20260503191232 | 89 | 313 | 0.0 | 2.0 | 0.00 | 0.00 | 0.00 | 20 | 980.4 |
| 20260503190733 | 88 | 276 | 0.0 | 2.0 | 0.00 | 0.00 | 0.00 | 21 | 980.3 |
| 20260503190233 | 88 | 313 | 2.0 | 7.0 | 0.00 | 0.00 | 0.00 | 21 | 980.5 |
| 20260503185732 | 88 | 310 | 2.0 | 7.0 | 0.00 | 0.00 | 0.00 | 21 | 980.5 |
| 20260503185232 | 88 | 316 | 0.0 | 5.0 | 0.00 | 0.00 | 0.00 | 21 | 980.5 |
| 20260503184732 | 88 | 317 | 0.0 | 5.0 | 0.00 | 0.00 | 0.00 | 22 | 980.6 |
| 20260503184233 | 88 | 286 | 0.0 | 2.0 | 0.00 | 0.00 | 0.00 | 20 | 980.7 |
| 20260503183733 | 88 | 286 | 0.0 | 3.0 | 0.00 | 0.00 | 0.00 | 20 | 980.8 |
| 20260503183232 | 87 | 269 | 1.0 | 3.0 | 0.00 | 0.00 | 0.00 | 22 | 980.9 |
| 20260503182732 | 86 | 286 | 0.0 | 2.0 | 0.00 | 0.00 | 0.00 | 22 | 980.9 |
| 20260503182233 | 86 | 286 | 0.0 | 6.0 | 0.00 | 0.00 | 0.00 | 22 | 981.1 |
| 20260503181733 | 86 | 324 | 0.0 | 6.0 | 0.00 | 0.00 | 0.00 | 22 | 981.1 |
| 20260503181233 | 86 | 312 | 0.0 | 4.0 | 0.00 | 0.00 | 0.00 | 22 | 981.2 |
| 20260503180732 | 87 | 290 | 0.0 | 2.0 | 0.00 | 0.00 | 0.00 | 22 | 981.3 |
| 20260503180233 | 86 | 272 | 0.0 | 9.0 | 0.00 | 0.00 | 0.00 | 20 | 981.4 |
| 20260503175732 | 86 | 320 | 0.0 | 9.0 | 0.00 | 0.00 | 0.00 | 21 | 981.5 |
| 20260503174732 | 86 | 307 | 0.0 | 4.0 | 0.00 | 0.00 | 0.00 | 20 | 981.3 |
| 20260503174232 | 86 | 307 | 1.0 | 4.0 | 0.00 | 0.00 | 0.00 | 20 | 981.3 |
| 20260503173732 | 85 | 357 | 0.0 | 3.0 | 0.00 | 0.00 | 0.00 | 21 | 981.3 |
| 20260503173233 | 85 | 18 | 0.0 | 3.0 | 0.00 | 0.00 | 0.00 | 21 | 981.3 |
| 20260503172733 | 85 | 313 | 0.0 | 3.0 | 0.00 | 0.00 | 0.00 | 21 | 981.3 |
| 20260503172231 | 84 | 313 | 0.0 | 2.0 | 0.00 | 0.00 | 0.00 | 22 | 981.4 |
| 20260503171233 | 84 | 313 | 1.0 | 4.0 | 0.00 | 0.00 | 0.00 | 23 | 981.4 |
| 20260503170731 | 83 | 241 | 0.0 | 2.0 | 0.00 | 0.00 | 0.00 | 25 | 981.3 |
| 20260503170233 | 83 | 266 | 0.0 | 2.0 | 0.00 | 0.00 | 0.00 | 25 | 981.4 |
| 20260503150732 | 77 | 250 | 0.0 | 1.0 | 0.00 | 0.00 | 0.00 | 36 | 981.2 |
| 20260503140233 | 73 | 220 | 0.0 | 0.0 | 0.00 | 0.00 | 0.00 | 39 | 980.7 |
| 20260503131232 | 71 | 220 | 0.0 | 0.0 | 0.00 | 0.00 | 0.00 | 44 | 979.8 |
| 20260503130732 | 71 | 220 | 0.0 | 1.0 | 0.00 | 0.00 | 0.00 | 44 | 979.8 |
| 20260503130233 | 71 | 220 | 0.0 | 1.0 | 0.00 | 0.00 | 0.00 | 43 | 979.7 |
| 20260503110735 | 73 | 351 | 0.0 | 0.0 | 0.00 | 0.00 | 0.00 | 40 | 979.3 |
| 20260503100236 | 73 | 351 | 0.0 | 0.0 | 0.00 | 0.00 | 0.00 | 37 | 979.9 |
| 20260503090235 | 76 | 351 | 0.0 | 0.0 | 0.00 | 0.00 | 0.00 | 31 | 980.0 |
| 20260503081236 | 78 | 351 | 0.0 | 0.0 | 0.00 | 0.00 | 0.00 | 29 | 980.2 |
| 20260503080734 | 0 | 0.0 | 0.0 | 0.00 | 0.00 | 0.00 | 980.1 | ||
| 20260503080235 | 78 | 351 | 0.0 | 0.0 | 0.00 | 0.00 | 0.00 | 30 | 980.1 |
| 20260503072740 | 78 | 351 | 0.0 | 0.0 | 0.00 | 0.00 | 0.00 | 30 | 980.3 |
| 20260503072237 | 78 | 351 | 0.0 | 0.0 | 0.00 | 0.00 | 0.00 | 30 | 980.3 |
| 20260503071736 | 78 | 351 | 0.0 | 0.0 | 0.00 | 0.00 | 0.00 | 30 | 980.3 |
| 20260503071235 | 78 | 351 | 0.0 | 0.0 | 0.00 | 0.00 | 0.00 | 30 | 980.2 |
| 20260503070736 | 78 | 351 | 0.0 | 0.0 | 0.00 | 0.00 | 0.00 | 30 | 980.2 |
| 20260503070234 | 78 | 351 | 0.0 | 0.0 | 0.00 | 0.00 | 0.00 | 30 | 980.3 |
| 20260503060232 | 80 | 351 | 0.0 | 0.0 | 0.00 | 0.00 | 0.00 | 28 | 979.8 |
| 20260503054233 | 80 | 351 | 0.0 | 0.0 | 0.00 | 0.00 | 0.00 | 28 | 979.6 |
| 20260503053733 | 80 | 351 | 0.0 | 0.0 | 0.00 | 0.00 | 0.00 | 28 | 979.6 |
| 20260503053233 | 80 | 351 | 0.0 | 0.0 | 0.00 | 0.00 | 0.00 | 28 | 979.5 |
| 20260503052733 | 81 | 351 | 0.0 | 0.0 | 0.00 | 0.00 | 0.00 | 27 | 979.5 |
| 20260503052234 | 81 | 351 | 0.0 | 0.0 | 0.00 | 0.00 | 0.00 | 27 | 979.5 |
| 20260503051732 | 81 | 351 | 0.0 | 0.0 | 0.00 | 0.00 | 0.00 | 27 | 979.4 |
| 20260503051231 | 81 | 351 | 0.0 | 0.0 | 0.00 | 0.00 | 0.00 | 27 | 979.4 |
| 20260503050733 | 81 | 351 | 0.0 | 0.0 | 0.00 | 0.00 | 0.00 | 27 | 979.3 |
| 20260503050232 | 82 | 351 | 0.0 | 0.0 | 0.00 | 0.00 | 0.00 | 27 | 979.1 |
| 20260503045733 | 82 | 351 | 0.0 | 1.0 | 0.00 | 0.00 | 0.00 | 27 | 979.1 |
| 20260503045231 | 82 | 351 | 0.0 | 1.0 | 0.00 | 0.00 | 0.00 | 27 | 979.1 |
| 20260503044733 | 82 | 351 | 0.0 | 1.0 | 0.00 | 0.00 | 0.00 | 27 | 979.3 |
| 20260503044233 | 82 | 351 | 0.0 | 1.0 | 0.00 | 0.00 | 0.00 | 27 | 979.2 |
| 20260503043734 | 82 | 351 | 0.0 | 2.0 | 0.00 | 0.00 | 0.00 | 26 | 979.0 |
| 20260503043233 | 83 | 351 | 0.0 | 2.0 | 0.00 | 0.00 | 0.00 | 26 | 979.1 |
| 20260503041732 | 83 | 350 | 0.0 | 0.0 | 0.00 | 0.00 | 0.00 | 26 | 978.9 |
| 20260503041233 | 83 | 348 | 0.0 | 2.0 | 0.00 | 0.00 | 0.00 | 26 | 978.9 |
| 20260503035733 | 83 | 350 | 0.0 | 0.0 | 0.00 | 0.00 | 0.00 | 26 | 978.6 |
| 20260503035232 | 83 | 348 | 0.0 | 1.0 | 0.00 | 0.00 | 0.00 | 26 | 978.5 |
| 20260503034733 | 84 | 350 | 0.0 | 1.0 | 0.00 | 0.00 | 0.00 | 26 | 978.5 |
| 20260503034232 | 84 | 350 | 0.0 | 3.0 | 0.00 | 0.00 | 0.00 | 26 | 978.5 |
| 20260503033732 | 84 | 348 | 0.0 | 3.0 | 0.00 | 0.00 | 0.00 | 26 | 978.4 |
| 20260503033233 | 84 | 348 | 1.0 | 1.0 | 0.00 | 0.00 | 0.00 | 26 | 978.4 |
| 20260503032732 | 84 | 348 | 0.0 | 1.0 | 0.00 | 0.00 | 0.00 | 26 | 978.3 |
| 20260503032232 | 84 | 347 | 0.0 | 0.0 | 0.00 | 0.00 | 0.00 | 26 | 978.2 |
| 20260503031732 | 84 | 348 | 0.0 | 1.0 | 0.00 | 0.00 | 0.00 | 26 | 978.2 |
| 20260503031233 | 85 | 347 | 0.0 | 3.0 | 0.00 | 0.00 | 0.00 | 26 | 978.2 |
| 20260503030732 | 85 | 348 | 1.0 | 5.0 | 0.00 | 0.00 | 0.00 | 26 | 978.1 |
| 20260503030233 | 85 | 345 | 1.0 | 6.0 | 0.00 | 0.00 | 0.00 | 26 | 978.1 |
| 20260503025733 | 85 | 341 | 2.0 | 6.0 | 0.00 | 0.00 | 0.00 | 26 | 977.9 |
| 20260503025231 | 85 | 343 | 1.0 | 12.0 | 0.00 | 0.00 | 0.00 | 26 | 977.9 |
| 20260503024733 | 85 | 327 | 3.0 | 12.0 | 0.00 | 0.00 | 0.00 | 26 | 978.0 |
| 20260503024232 | 85 | 341 | 2.0 | 9.0 | 0.00 | 0.00 | 0.00 | 25 | 977.9 |
| 20260503023732 | 86 | 341 | 3.0 | 9.0 | 0.00 | 0.00 | 0.00 | 25 | 977.8 |
| 20260503023233 | 86 | 333 | 0.0 | 7.0 | 0.00 | 0.00 | 0.00 | 25 | 978.0 |
| 20260503022732 | 86 | 343 | 1.0 | 7.0 | 0.00 | 0.00 | 0.00 | 25 | 977.9 |
| 20260503022233 | 87 | 347 | 2.0 | 10.0 | 0.00 | 0.00 | 0.00 | 25 | 977.7 |
| 20260503021731 | 87 | 345 | 5.0 | 10.0 | 0.00 | 0.00 | 0.00 | 25 | 977.7 |
| 20260503021231 | 87 | 338 | 2.0 | 10.0 | 0.00 | 0.00 | 0.00 | 25 | 977.7 |
| 20260503020233 | 87 | 347 | 3.0 | 10.0 | 0.00 | 0.00 | 0.00 | 24 | 977.5 |
| 20260503015736 | 88 | 331 | 4.0 | 12.0 | 0.00 | 0.00 | 0.00 | 24 | 977.3 |
| 20260503014735 | 88 | 329 | 4.0 | 12.0 | 0.00 | 0.00 | 0.00 | 24 | 977.2 |
| 20260503014236 | 88 | 334 | 3.0 | 13.0 | 0.00 | 0.00 | 0.00 | 24 | 977.0 |
| 20260503013736 | 89 | 321 | 4.0 | 13.0 | 0.00 | 0.00 | 0.00 | 24 | 976.9 |
| 20260503012733 | 89 | 336 | 4.0 | 16.0 | 0.00 | 0.00 | 0.00 | 24 | 977.0 |
| 20260503012234 | 89 | 338 | 8.0 | 16.0 | 0.00 | 0.00 | 0.00 | 24 | 976.9 |
| 20260503011735 | 90 | 326 | 5.0 | 14.0 | 0.00 | 0.00 | 0.00 | 24 | 976.9 |
| 20260503010735 | 91 | 331 | 2.0 | 13.0 | 0.00 | 0.00 | 0.00 | 23 | 976.8 |
| 20260503010236 | 91 | 324 | 5.0 | 13.0 | 0.00 | 0.00 | 0.00 | 23 | 976.7 |
| 20260503005238 | 92 | 351 | 5.0 | 15.0 | 0.00 | 0.00 | 0.00 | 23 | 976.8 |
| 20260503004735 | 92 | 357 | 7.0 | 15.0 | 0.00 | 0.00 | 0.00 | 23 | 976.7 |
| 20260503004235 | 92 | 337 | 6.0 | 16.0 | 0.00 | 0.00 | 0.00 | 23 | 976.8 |
| 20260503003735 | 92 | 357 | 5.0 | 16.0 | 0.00 | 0.00 | 0.00 | 23 | 976.7 |
| 20260503003236 | 93 | 338 | 5.0 | 17.0 | 0.00 | 0.00 | 0.00 | 23 | 976.6 |
| 20260503002735 | 92 | 333 | 9.0 | 17.0 | 0.00 | 0.00 | 0.00 | 23 | 976.5 |
| 20260503002234 | 93 | 355 | 3.0 | 13.0 | 0.00 | 0.00 | 0.00 | 22 | 976.4 |
| 20260503001736 | 93 | 341 | 7.0 | 14.0 | 0.00 | 0.00 | 0.00 | 22 | 976.5 |
| 20260503001235 | 94 | 351 | 6.0 | 14.0 | 0.00 | 0.00 | 0.00 | 22 | 976.5 |
| 20260503000736 | 94 | 0 | 4.0 | 14.0 | 0.00 | 0.00 | 0.00 | 22 | 976.5 |
| 20260502235234 | 94 | 345 | 0.0 | 9.0 | 0.00 | 0.00 | 0.00 | 20 | 976.4 |
| 20260502234735 | 94 | 345 | 1.0 | 9.0 | 0.00 | 0.00 | 0.00 | 20 | 976.5 |
| 20260502234235 | 94 | 28 | 0.0 | 2.0 | 0.00 | 0.00 | 0.00 | 20 | 976.4 |
| 20260502233736 | 94 | 358 | 0.0 | 1.0 | 0.00 | 0.00 | 0.00 | 20 | 976.3 |
| 20260502233235 | 94 | 358 | 0.0 | 1.0 | 0.00 | 0.00 | 0.00 | 20 | 976.3 |
| 20260502232735 | 95 | 358 | 0.0 | 7.0 | 0.00 | 0.00 | 0.00 | 20 | 976.3 |
| 20260502232236 | 94 | 358 | 0.0 | 11.0 | 0.00 | 0.00 | 0.00 | 20 | 976.4 |
| 20260502231734 | 94 | 350 | 4.0 | 11.0 | 0.00 | 0.00 | 0.00 | 20 | 976.4 |
| 20260502231236 | 94 | 344 | 0.0 | 12.0 | 0.00 | 0.00 | 0.00 | 20 | 976.2 |
| 20260502230734 | 95 | 347 | 4.0 | 12.0 | 0.00 | 0.00 | 0.00 | 20 | 976.2 |
| 20260502230235 | 95 | 337 | 1.0 | 4.0 | 0.00 | 0.00 | 0.00 | 19 | 976.2 |
| 20260502225734 | 95 | 52 | 0.0 | 3.0 | 0.00 | 0.00 | 0.00 | 19 | 976.3 |
| 20260502224735 | 95 | 20 | 0.0 | 1.0 | 0.00 | 0.00 | 0.00 | 19 | 976.4 |
| 20260502224235 | 95 | 47 | 0.0 | 1.0 | 0.00 | 0.00 | 0.00 | 19 | 976.4 |
| 20260502223734 | 96 | 0 | 0.0 | 2.0 | 0.00 | 0.00 | 0.00 | 19 | 976.5 |
| 20260502223235 | 96 | 0 | 0.0 | 2.0 | 0.00 | 0.00 | 0.00 | 19 | 976.5 |
| 20260502222734 | 95 | 1 | 0.0 | 5.0 | 0.00 | 0.00 | 0.00 | 19 | 976.6 |
| 20260502222234 | 95 | 348 | 0.0 | 6.0 | 0.00 | 0.00 | 0.00 | 19 | 976.6 |
| 20260502221735 | 95 | 0 | 3.0 | 7.0 | 0.00 | 0.00 | 0.00 | 19 | 976.6 |
| 20260502221235 | 96 | 331 | 2.0 | 7.0 | 0.00 | 0.00 | 0.00 | 19 | 976.7 |
| 20260502220735 | 95 | 1 | 1.0 | 3.0 | 0.00 | 0.00 | 0.00 | 19 | 976.7 |
| 20260502220236 | 95 | 0 | 0.0 | 4.0 | 0.00 | 0.00 | 0.00 | 19 | 976.7 |
| 20260502215734 | 95 | 0 | 1.0 | 5.0 | 0.00 | 0.00 | 0.00 | 19 | 976.5 |
| 20260502215235 | 95 | 351 | 1.0 | 5.0 | 0.00 | 0.00 | 0.00 | 19 | 976.6 |
| 20260502214235 | 94 | 0 | 0.0 | 0.0 | 0.00 | 0.00 | 0.00 | 20 | 976.8 |
| 20260502213735 | 95 | 0 | 0.0 | 2.0 | 0.00 | 0.00 | 0.00 | 20 | 976.9 |
| 20260502213234 | 95 | 0 | 0.0 | 4.0 | 0.00 | 0.00 | 0.00 | 19 | 977.0 |
| 20260502212734 | 95 | 299 | 0.0 | 4.0 | 0.00 | 0.00 | 0.00 | 20 | 977.0 |
| 20260502212233 | 95 | 7 | 0.0 | 1.0 | 0.00 | 0.00 | 0.00 | 19 | 977.1 |
| 20260502211733 | 94 | 357 | 0.0 | 1.0 | 0.00 | 0.00 | 0.00 | 19 | 977.3 |
| 20260502210732 | 94 | 355 | 0.0 | 9.0 | 0.00 | 0.00 | 0.00 | 19 | 977.5 |
| 20260502210234 | 95 | 334 | 2.0 | 9.0 | 0.00 | 0.00 | 0.00 | 19 | 977.7 |
| 20260502205733 | 95 | 110 | 0.0 | 1.0 | 0.00 | 0.00 | 0.00 | 20 | 977.7 |
| 20260502205233 | 94 | 217 | 0.0 | 0.0 | 0.00 | 0.00 | 0.00 | 20 | 977.7 |
| 20260502204733 | 94 | 228 | 0.0 | 0.0 | 0.00 | 0.00 | 0.00 | 20 | 977.8 |
| 20260502204232 | 94 | 285 | 0.0 | 0.0 | 0.00 | 0.00 | 0.00 | 20 | 977.9 |
| 20260502203732 | 94 | 0 | 0.0 | 3.0 | 0.00 | 0.00 | 0.00 | 21 | 978.1 |
| 20260502202731 | 94 | 0 | 0.0 | 3.0 | 0.00 | 0.00 | 0.00 | 21 | 978.3 |
| 20260502202233 | 94 | 337 | 0.0 | 1.0 | 0.00 | 0.00 | 0.00 | 21 | 978.3 |
| 20260502201734 | 94 | 303 | 0.0 | 0.0 | 0.00 | 0.00 | 0.00 | 21 | 978.3 |
| 20260502201232 | 93 | 303 | 0.0 | 2.0 | 0.00 | 0.00 | 0.00 | 21 | 978.4 |